Time;durP1;ratioP1;P1;durP2;ratioP2;P2;SDS_P1;SDS_P2;PMS_P1;PMS_P2;Temp;Humidity;BMP_temperature;BMP_pressure;BME280_temperature;BME280_humidity;BME280_pressure;Samples;Min_cycle;Max_cycle;Signal;HPM_P1;HPM_P2
2022/11/11 08:55:23;;;;;;;18.53;16.53;;;;;;;11.21;68.59;96251.06;5284338;23;20245;-66
2022/11/11 08:57:57;;;;;;;18.57;16.20;;;;;;;11.26;68.46;96248.88;4941255;29;20185;-66
2022/11/11 09:00:23;;;;;;;17.03;14.93;;;;;;;11.20;68.61;96249.38;4922026;29;20269;-66
2022/11/11 09:02:48;;;;;;;16.83;15.03;;;;;;;11.12;68.90;96251.78;4920668;29;20194;-66
2022/11/11 09:05:14;;;;;;;18.37;15.10;;;;;;;11.21;68.36;96238.72;4925238;29;20586;-65
2022/11/11 09:07:39;;;;;;;17.53;15.70;;;;;;;11.29;68.01;96239.91;4923889;29;20221;-66
2022/11/11 09:10:05;;;;;;;16.63;14.77;;;;;;;11.34;68.34;96246.47;4923229;29;20198;-66
2022/11/11 09:12:30;;;;;;;17.07;14.23;;;;;;;11.34;67.70;96246.47;4928518;29;20253;-66
2022/11/11 09:14:56;;;;;;;19.37;14.90;;;;;;;11.35;67.52;96242.84;4928098;29;20236;-67
2022/11/11 09:17:21;;;;;;;15.33;13.73;;;;;;;11.49;67.15;96241.72;4936684;29;20194;-66
2022/11/11 09:19:47;;;;;;;16.93;14.67;;;;;;;11.46;66.89;96244.59;4928880;29;20258;-68
2022/11/11 09:22:12;;;;;;;20.45;14.27;;;;;;;11.46;66.73;96245.44;4926528;29;20194;-69
2022/11/11 09:24:37;;;;;;;16.77;13.83;;;;;;;11.52;66.62;96251.16;4925791;29;20197;-69
2022/11/11 09:27:03;;;;;;;15.80;14.20;;;;;;;11.50;66.59;96258.38;4917134;29;20235;-68
2022/11/11 09:29:28;;;;;;;16.20;14.50;;;;;;;11.57;66.35;96243.72;4918093;29;20209;-70
2022/11/11 09:31:54;;;;;;;16.37;13.87;;;;;;;11.65;66.28;96251.81;4925419;29;20193;-69
2022/11/11 09:34:19;;;;;;;14.73;13.23;;;;;;;11.67;65.59;96240.19;4923008;29;20653;-69
2022/11/11 09:36:45;;;;;;;14.13;12.73;;;;;;;11.69;65.04;96245.34;4924248;29;20679;-70
2022/11/11 09:39:10;;;;;;;14.70;12.33;;;;;;;11.81;64.90;96243.44;4927293;29;20318;-71
2022/11/11 09:41:51;;;;;;;12.55;11.25;;;;;;;11.82;64.00;96237.22;4928804;29;20197;-71
2022/11/11 09:44:53;;;;;;;12.82;11.50;;;;;;;11.84;63.70;96233.50;4918838;29;20608;-70
2022/11/11 09:47:40;;;;;;;12.10;10.90;;;;;;;11.97;63.13;96222.75;4937082;29;20213;-70
2022/11/11 09:50:23;;;;;;;12.43;11.15;;;;;;;12.03;63.02;96226.69;4938925;29;20198;-68
2022/11/11 09:52:54;;;;;;;12.27;10.80;;;;;;;12.04;62.88;96221.28;4925467;29;20190;-67
2022/11/11 09:55:37;;;;;;;12.38;11.13;;;;;;;11.96;62.97;96215.00;4926706;29;20237;-66
2022/11/11 09:58:19;;;;;;;16.77;11.70;;;;;;;11.92;63.16;96219.69;4931148;29;20632;-68
2022/11/11 10:00:50;;;;;;;12.70;11.40;;;;;;;11.87;63.27;96211.38;4927523;29;20700;-66
2022/11/11 10:03:19;;;;;;;14.93;12.10;;;;;;;11.95;63.13;96216.81;4926144;29;20219;-66
2022/11/11 10:06:06;;;;;;;12.10;10.88;;;;;;;12.09;62.75;96226.19;4933215;29;20213;-66
2022/11/11 10:08:45;;;;;;;12.17;10.87;;;;;;;12.03;62.51;96217.00;4930848;29;20192;-67
2022/11/11 10:11:18;;;;;;;12.33;11.20;;;;;;;12.16;62.28;96211.47;4928071;29;20260;-67
2022/11/11 10:13:44;;;;;;;12.10;11.00;;;;;;;12.40;61.22;96212.97;4926318;29;20294;-67
2022/11/11 10:16:15;;;;;;;10.43;9.43;;;;;;;12.39;60.76;96211.31;4929958;29;20242;-67
2022/11/11 10:18:49;;;;;;;11.70;10.50;;;;;;;12.48;60.81;96215.75;4928138;29;20189;-67
2022/11/11 10:21:23;;;;;;;11.50;10.40;;;;;;;12.58;59.97;96219.28;4928393;29;20184;-67
2022/11/11 10:23:54;;;;;;;10.95;9.88;;;;;;;12.50;59.52;96211.19;4927539;29;20575;-67
2022/11/11 10:26:35;;;;;;;10.70;9.70;;;;;;;12.41;60.06;96225.19;4932460;29;21771;-67
2022/11/11 10:29:04;;;;;;;10.90;9.90;;;;;;;12.37;60.34;96206.16;4928511;29;20190;-69
2022/11/11 10:31:29;;;;;;;11.20;10.10;;;;;;;12.43;60.23;96212.69;4926141;29;20197;-68
2022/11/11 10:34:01;;;;;;;11.02;9.90;;;;;;;12.27;60.40;96211.41;4925365;29;20194;-68
2022/11/11 10:36:29;;;;;;;11.60;10.40;;;;;;;12.07;61.13;96213.09;4924801;29;20177;-68
2022/11/11 10:39:00;;;;;;;10.93;9.82;;;;;;;12.20;60.65;96207.63;4942196;29;20186;-68
2022/11/11 10:41:28;;;;;;;10.73;9.80;;;;;;;12.01;61.21;96204.91;4909804;29;20209;-68
2022/11/11 10:43:54;;;;;;;11.60;10.30;;;;;;;12.14;60.73;96206.34;4941555;29;20257;-69
2022/11/11 10:46:37;;;;;;;12.02;10.75;;;;;;;12.23;60.71;96202.06;4930688;29;20880;-67
2022/11/11 10:49:32;;;;;;;11.63;10.43;;;;;;;12.24;60.45;96201.13;4926907;29;20201;-68
2022/11/11 10:52:09;;;;;;;10.83;9.80;;;;;;;12.19;60.84;96200.69;4925504;29;20212;-68
2022/11/11 10:54:44;;;;;;;12.43;10.13;;;;;;;12.17;60.38;96201.78;4925525;29;20245;-68
2022/11/11 10:57:20;;;;;;;11.30;10.30;;;;;;;12.16;60.72;96200.94;4910136;29;20256;-68
2022/11/11 10:59:56;;;;;;;12.63;11.23;;;;;;;12.21;60.31;96197.91;4924620;29;20326;-68
2022/11/11 11:02:38;;;;;;;11.47;10.37;;;;;;;12.23;59.29;96203.88;4926397;29;20185;-68
2022/11/11 11:05:18;;;;;;;11.50;10.15;;;;;;;12.12;59.38;96196.91;4928310;29;20299;-68
2022/11/11 11:07:50;;;;;;;9.57;8.70;;;;;;;12.03;59.44;96195.03;4923238;29;20209;-68
2022/11/11 11:10:20;;;;;;;10.30;9.30;;;;;;;12.11;58.86;96188.16;4928189;29;20194;-69
2022/11/11 11:12:58;;;;;;;10.87;9.77;;;;;;;12.24;58.46;96182.66;4924613;29;20711;-68
2022/11/11 11:15:26;;;;;;;11.00;9.17;;;;;;;12.49;57.74;96180.53;4929933;29;20193;-68
2022/11/11 11:18:06;;;;;;;8.93;8.02;;;;;;;12.82;56.31;96173.22;4924716;29;20197;-68
2022/11/11 11:20:32;;;;;;;9.00;7.78;;;;;;;12.87;55.29;96174.47;4926925;29;20182;-67
2022/11/11 11:23:00;;;;;;;9.23;8.30;;;;;;;12.91;55.31;96173.22;4930634;29;20633;-69
2022/11/11 11:25:28;;;;;;;9.10;8.20;;;;;;;13.04;55.19;96170.28;4925104;29;20195;-66
2022/11/11 11:28:12;;;;;;;9.45;8.63;;;;;;;13.25;53.98;96176.28;4925243;29;20194;-68
2022/11/11 11:30:39;;;;;;;8.50;7.45;;;;;;;13.63;52.90;96164.03;4924525;29;20663;-66
2022/11/11 11:33:07;;;;;;;8.77;7.38;;;;;;;14.24;50.95;96154.75;4926824;29;20751;-70
2022/11/11 11:35:39;;;;;;;8.52;7.72;;;;;;;14.52;49.51;96165.38;4928929;29;20189;-68
2022/11/11 11:38:06;;;;;;;8.15;7.35;;;;;;;14.71;48.38;96161.81;4942817;29;20560;-69
2022/11/11 11:40:57;;;;;;;7.35;6.63;;;;;;;15.02;46.70;96151.66;4923504;29;20182;-66
2022/11/11 11:43:32;;;;;;;7.32;6.60;;;;;;;15.33;45.59;96153.94;4921717;29;20268;-69
2022/11/11 11:46:00;;;;;;;7.45;6.75;;;;;;;15.63;44.76;96148.19;4938530;29;20652;-66
2022/11/11 11:49:03;;;;;;;7.20;6.18;;;;;;;16.31;42.51;96147.44;4923626;29;21214;-71
2022/11/11 11:51:38;;;;;;;6.60;6.00;;;;;;;15.71;43.94;96150.09;4928438;29;20208;-70
2022/11/11 11:54:06;;;;;;;6.30;5.70;;;;;;;15.47;44.68;96153.38;4924154;29;20191;-71
2022/11/11 11:56:37;;;;;;;7.20;6.50;;;;;;;15.16;45.21;96145.03;4926295;29;20280;-71
2022/11/11 11:59:05;;;;;;;6.85;6.15;;;;;;;14.82;45.91;96153.63;4926268;29;20253;-70
2022/11/11 12:01:43;;;;;;;8.82;7.03;;;;;;;14.27;47.69;96154.50;4925988;29;20191;-66
2022/11/11 12:04:39;;;;;;;7.78;6.85;;;;;;;13.91;49.02;96148.22;4922634;29;20313;-67
2022/11/11 12:07:08;;;;;;;7.25;6.53;;;;;;;13.51;49.40;96143.19;4920154;29;20710;-69
2022/11/11 12:09:45;;;;;;;8.07;6.68;;;;;;;13.31;50.24;96147.66;4925693;29;20219;-72
2022/11/11 12:12:28;;;;;;;10.30;7.38;;;;;;;13.10;50.93;96148.63;4930088;29;20190;-72
2022/11/11 12:15:15;;;;;;;8.52;6.78;;;;;;;13.09;51.30;96149.59;4931146;29;20216;-68
2022/11/11 12:18:08;;;;;;;6.88;6.28;;;;;;;13.00;51.86;96140.72;4930277;29;20268;-67
2022/11/11 12:20:53;;;;;;;7.22;6.10;;;;;;;13.01;51.12;96136.25;4940686;29;20312;-66
2022/11/11 12:23:44;;;;;;;7.43;6.50;;;;;;;13.00;51.31;96138.06;4940523;29;20178;-66
2022/11/11 12:26:19;;;;;;;7.13;6.43;;;;;;;13.02;51.42;96137.94;4937814;29;20237;-64
2022/11/11 12:29:37;;;;;;;8.20;6.43;;;;;;;12.99;51.35;96138.19;4926825;29;20579;-66
2022/11/11 12:32:33;;;;;;;6.97;6.03;;;;;;;12.92;51.48;96131.81;4929611;29;20279;-67
2022/11/11 12:35:21;;;;;;;7.18;6.47;;;;;;;12.91;51.33;96132.78;4924167;29;20188;-67
2022/11/11 12:37:55;;;;;;;7.23;6.63;;;;;;;12.84;51.90;96131.69;4926834;29;20262;-68
2022/11/11 12:40:45;;;;;;;7.30;6.60;;;;;;;12.91;51.33;96116.94;4925203;29;20185;-67
2022/11/11 12:43:11;;;;;;;7.45;6.65;;;;;;;12.85;51.18;96128.06;4926350;29;20270;-67
2022/11/11 12:45:51;;;;;;;5.90;5.38;;;;;;;12.85;51.02;96125.41;4925707;29;20324;-68
2022/11/11 12:48:23;;;;;;;7.47;6.17;;;;;;;12.84;50.83;96123.75;4940388;29;20650;-68
2022/11/11 12:51:12;;;;;;;6.55;5.85;;;;;;;12.72;51.32;96125.69;4925455;29;20194;-66
2022/11/11 12:53:58;;;;;;;8.43;5.70;;;;;;;12.68;51.77;96119.84;4943887;29;20276;-68
2022/11/11 12:56:47;;;;;;;6.30;5.65;;;;;;;12.70;51.71;96119.72;4884182;29;20726;-66
2022/11/11 12:59:58;;;;;;;7.18;6.50;;;;;;;12.71;52.18;96116.94;4858497;29;20195;-70
2022/11/11 13:03:01;;;;;;;8.40;6.40;;;;;;;12.77;51.59;96126.09;4819854;29;20712;-70
2022/11/11 13:05:36;;;;;;;7.93;6.60;;;;;;;12.76;52.28;96130.56;4817283;29;20197;-70
2022/11/11 13:08:11;;;;;;;8.68;6.70;;;;;;;12.84;52.12;96134.31;4820867;29;20284;-70
2022/11/11 13:11:12;;;;;;;7.00;6.40;;;;;;;12.70;52.51;96131.13;4801281;29;20207;-70
2022/11/11 13:13:55;;;;;;;7.55;6.85;;;;;;;12.61;52.77;96131.91;4768200;29;20207;-70
2022/11/11 13:16:23;;;;;;;8.05;6.53;;;;;;;12.56;53.20;96134.13;4783614;29;22228;-70
2022/11/11 13:18:58;;;;;;;8.05;6.55;;;;;;;12.54;53.34;96128.19;4780983;29;20243;-69
2022/11/11 13:21:58;;;;;;;7.40;6.30;;;;;;;12.53;52.87;96134.41;4770966;29;20235;-70
2022/11/11 13:24:24;;;;;;;6.72;6.03;;;;;;;12.51;53.14;96139.84;4771636;29;20211;-70
2022/11/11 13:27:05;;;;;;;6.80;6.20;;;;;;;12.51;52.85;96126.66;4769888;29;20239;-68
2022/11/11 13:29:52;;;;;;;7.10;6.15;;;;;;;12.52;52.81;96135.41;4783297;29;20278;-70
2022/11/11 13:32:24;;;;;;;7.57;6.78;;;;;;;12.51;53.16;96126.66;4793136;29;20230;-70
2022/11/11 13:34:51;;;;;;;7.55;6.40;;;;;;;12.49;52.84;96128.59;4890565;29;20191;-70
2022/11/11 13:37:24;;;;;;;7.78;6.90;;;;;;;12.38;53.23;96133.97;4877340;29;20203;-71
2022/11/11 13:39:51;;;;;;;7.43;6.73;;;;;;;12.40;53.38;96141.75;4896009;29;20195;-70
2022/11/11 13:42:26;;;;;;;8.98;6.72;;;;;;;12.43;53.60;96149.38;4879901;29;20304;-70
2022/11/11 13:45:14;;;;;;;8.60;6.65;;;;;;;12.43;53.30;96144.09;4874256;29;20226;-68
2022/11/11 13:47:45;;;;;;;8.43;6.63;;;;;;;12.46;53.70;96149.97;4893805;29;20218;-67
2022/11/11 13:50:30;;;;;;;8.02;7.07;;;;;;;12.48;53.17;96141.91;4902576;29;20208;-67
2022/11/11 13:53:04;;;;;;;8.95;7.10;;;;;;;12.44;53.49;96145.78;4933720;29;20292;-66
2022/11/11 13:55:40;;;;;;;8.45;7.07;;;;;;;12.40;53.92;96147.84;4929886;29;20315;-65
2022/11/11 13:58:16;;;;;;;7.15;6.45;;;;;;;12.36;53.55;96141.19;4929478;29;20185;-64
2022/11/11 14:00:42;;;;;;;7.90;7.20;;;;;;;12.39;53.61;96143.56;4928491;29;20185;-67
2022/11/11 14:03:29;;;;;;;8.23;7.43;;;;;;;12.36;53.62;96147.28;4932143;29;20225;-66
2022/11/11 14:06:13;;;;;;;9.43;7.25;;;;;;;12.35;53.91;96152.72;4927467;29;20293;-68
2022/11/11 14:08:45;;;;;;;7.88;7.13;;;;;;;12.40;53.74;96145.22;4925351;29;20183;-69
2022/11/11 14:11:25;;;;;;;11.20;7.47;;;;;;;12.47;53.71;96151.63;4930201;29;20631;-67
2022/11/11 14:13:52;;;;;;;7.70;6.90;;;;;;;12.38;53.64;96148.97;4943999;29;20186;-68
2022/11/11 14:16:36;;;;;;;11.90;7.47;;;;;;;12.38;53.64;96149.81;4939973;29;20196;-68
2022/11/11 14:19:32;;;;;;;7.28;6.50;;;;;;;12.39;54.05;96153.28;4931403;29;20236;-67
2022/11/11 14:22:03;;;;;;;11.90;8.27;;;;;;;12.38;53.88;96156.91;4910094;29;20273;-68
2022/11/11 14:24:39;;;;;;;8.45;7.60;;;;;;;12.37;54.19;96153.41;4895086;29;20197;-68
2022/11/11 14:27:10;;;;;;;10.75;9.63;;;;;;;12.38;54.39;96156.91;4898142;29;20244;-69
2022/11/11 14:29:46;;;;;;;11.13;7.70;;;;;;;12.22;54.99;96155.59;4891869;29;20341;-70
2022/11/11 14:32:36;;;;;;;10.25;8.68;;;;;;;12.18;55.14;96154.19;4895955;29;20205;-67
2022/11/11 14:35:32;;;;;;;10.43;8.67;;;;;;;12.17;55.72;96160.44;4909331;29;20201;-68
2022/11/11 14:38:15;;;;;;;10.68;8.50;;;;;;;12.14;56.00;96158.06;4897821;29;20192;-73
2022/11/11 14:40:41;;;;;;;9.52;8.52;;;;;;;12.28;55.86;96162.13;4894815;29;20274;-67
2022/11/11 14:43:31;;;;;;;11.27;9.48;;;;;;;12.36;55.76;96160.47;4911774;29;20696;-68
2022/11/11 14:46:00;;;;;;;10.65;9.45;;;;;;;12.26;56.40;96164.06;4891712;29;20594;-67
2022/11/11 14:48:47;;;;;;;11.60;9.10;;;;;;;12.26;56.58;96164.88;4906593;29;20199;-65
2022/11/11 14:51:41;;;;;;;14.18;12.50;;;;;;;12.21;57.17;96167.09;4908003;29;20599;-75
2022/11/11 14:54:19;;;;;;;19.58;16.40;;;;;;;12.09;57.63;96176.09;4895396;29;20543;-67
2022/11/11 14:56:55;;;;;;;16.15;14.55;;;;;;;12.10;57.68;96175.09;4890824;29;20190;-65
2022/11/11 14:59:24;;;;;;;14.88;13.00;;;;;;;12.03;58.10;96181.88;4941939;29;20197;-67
2022/11/11 15:01:52;;;;;;;12.20;10.40;;;;;;;11.90;58.20;96175.03;4923675;29;20194;-65
2022/11/11 15:04:18;;;;;;;14.88;9.85;;;;;;;12.03;57.99;96179.22;4932002;29;20186;-71
2022/11/11 15:06:52;;;;;;;11.70;10.35;;;;;;;12.15;58.01;96170.28;4932441;29;20209;-64
2022/11/11 15:09:17;;;;;;;12.20;10.90;;;;;;;12.24;57.55;96172.13;4928421;29;20184;-68
2022/11/11 15:11:57;;;;;;;14.45;11.15;;;;;;;12.22;57.58;96171.41;4928214;29;20568;-66
2022/11/11 15:14:56;;;;;;;13.63;10.95;;;;;;;12.28;57.51;96175.31;4922752;29;20194;-65
2022/11/11 15:17:59;;;;;;;13.17;11.53;;;;;;;12.19;58.05;96179.59;4947013;28;20214;-67
2022/11/11 15:20:52;;;;;;;14.48;11.45;;;;;;;12.14;58.17;96187.06;4878583;29;20306;-65
2022/11/11 15:23:34;;;;;;;13.52;11.23;;;;;;;12.07;58.55;96194.66;4888613;29;20271;-61
2022/11/11 15:26:22;;;;;;;13.05;11.15;;;;;;;12.10;58.57;96193.56;4891171;29;20394;-66
2022/11/11 15:29:04;;;;;;;12.13;10.93;;;;;;;11.90;59.11;96193.47;4874623;29;20615;-66
2022/11/11 15:31:54;;;;;;;17.08;11.50;;;;;;;12.00;58.61;96185.63;4890158;29;20203;-66
2022/11/11 15:34:34;;;;;;;14.80;12.25;;;;;;;11.99;58.75;96188.38;4879606;29;20195;-68
2022/11/11 15:37:02;;;;;;;12.73;10.88;;;;;;;12.09;58.59;96184.00;4892168;29;20245;-68
2022/11/11 15:39:43;;;;;;;12.18;10.88;;;;;;;12.15;58.26;96186.09;4878933;29;20569;-65
2022/11/11 15:42:29;;;;;;;13.68;11.45;;;;;;;12.13;57.96;96177.47;4884051;29;20199;-66
2022/11/11 15:44:58;;;;;;;13.77;12.13;;;;;;;12.11;58.30;96179.44;4878244;29;20662;-65
2022/11/11 15:47:24;;;;;;;13.25;11.48;;;;;;;12.14;57.67;96181.78;4868417;29;20259;-64
2022/11/11 15:49:50;;;;;;;14.45;12.98;;;;;;;12.07;57.16;96185.91;4878077;29;20223;-65
2022/11/11 15:52:21;;;;;;;13.60;12.00;;;;;;;11.95;57.26;96182.56;4877172;29;20198;-71
2022/11/11 15:54:47;;;;;;;14.93;12.27;;;;;;;12.02;57.20;96196.03;4891958;29;20267;-65
2022/11/11 15:57:32;;;;;;;12.93;11.63;;;;;;;11.98;56.63;96197.28;4903389;29;20220;-65
2022/11/11 16:00:03;;;;;;;14.50;13.00;;;;;;;12.02;56.72;96206.56;4929668;29;20194;-66
2022/11/11 16:02:34;;;;;;;14.38;12.88;;;;;;;12.00;56.44;96196.16;4914110;29;20205;-66
2022/11/11 16:05:13;;;;;;;14.65;13.20;;;;;;;11.99;56.43;96199.75;4926405;29;20266;-66
2022/11/11 16:07:43;;;;;;;15.23;13.57;;;;;;;12.05;56.13;96198.38;4929363;29;20225;-66
2022/11/11 16:10:13;;;;;;;15.18;13.60;;;;;;;12.00;56.26;96197.94;4925385;29;20276;-66
2022/11/11 16:12:47;;;;;;;16.08;13.85;;;;;;;11.90;56.88;96198.75;4929044;29;20337;-65
2022/11/11 16:15:23;;;;;;;14.90;13.27;;;;;;;11.89;56.79;96202.34;4925259;29;20249;-66
2022/11/11 16:17:53;;;;;;;15.88;14.00;;;;;;;11.80;56.97;96203.09;4941630;29;20278;-66
2022/11/11 16:20:24;;;;;;;16.13;14.43;;;;;;;11.84;57.34;96208.94;4924107;29;20194;-66
2022/11/11 16:22:54;;;;;;;16.92;15.18;;;;;;;11.78;58.24;96215.56;4922503;29;20220;-66
2022/11/11 16:25:20;;;;;;;15.88;14.18;;;;;;;11.78;59.02;96220.81;4942113;29;20197;-68
2022/11/11 16:27:47;;;;;;;18.48;15.18;;;;;;;11.65;59.46;96222.81;4926423;29;20666;-67
2022/11/11 16:30:32;;;;;;;20.20;15.97;;;;;;;11.72;59.71;96228.44;4926377;29;20302;-67
2022/11/11 16:32:58;;;;;;;17.10;15.38;;;;;;;11.65;60.44;96230.72;4924582;29;20280;-69
2022/11/11 16:35:39;;;;;;;18.52;16.58;;;;;;;11.74;59.85;96229.16;4930109;29;20621;-67
2022/11/11 16:38:05;;;;;;;18.25;16.35;;;;;;;11.69;59.41;96232.16;4925308;29;20212;-66
2022/11/11 16:40:41;;;;;;;18.87;15.70;;;;;;;11.69;59.22;96234.78;4925743;29;20645;-68
2022/11/11 16:43:22;;;;;;;19.48;16.17;;;;;;;11.70;58.69;96234.63;4909192;29;20285;-68
2022/11/11 16:46:01;;;;;;;18.40;16.40;;;;;;;11.76;58.50;96241.22;4925619;29;20296;-67
2022/11/11 16:48:35;;;;;;;17.90;16.00;;;;;;;11.71;58.33;96243.41;4936750;28;20575;-69
2022/11/11 16:51:23;;;;;;;17.85;15.73;;;;;;;11.71;58.49;96238.13;4922595;29;20206;-68
2022/11/11 16:54:26;;;;;;;18.52;15.32;;;;;;;11.68;58.27;96239.22;4925794;29;20229;-67
2022/11/11 16:56:58;;;;;;;18.15;16.25;;;;;;;11.59;57.98;96239.97;4926041;29;20215;-68
2022/11/11 16:59:33;;;;;;;18.53;16.33;;;;;;;11.59;58.28;96250.53;4926965;29;20209;-67
2022/11/11 17:01:58;;;;;;;19.17;16.13;;;;;;;11.66;57.97;96246.41;4924656;29;20584;-69
2022/11/11 17:04:24;;;;;;;18.83;16.93;;;;;;;11.71;57.77;96253.94;4928098;29;20193;-68
2022/11/11 17:06:56;;;;;;;19.20;17.07;;;;;;;11.64;58.17;96250.16;4928361;29;20234;-70
2022/11/11 17:09:37;;;;;;;21.10;17.70;;;;;;;11.59;58.15;96265.50;4929732;29;20316;-67
2022/11/11 17:12:03;;;;;;;19.90;16.27;;;;;;;11.53;58.30;96253.66;4938501;29;20224;-68
2022/11/11 17:14:32;;;;;;;18.30;16.42;;;;;;;11.59;58.31;96257.59;4926807;29;20198;-70
2022/11/11 17:16:59;;;;;;;19.70;17.17;;;;;;;11.48;58.48;96259.31;4924125;29;20559;-70
2022/11/11 17:19:24;;;;;;;18.50;16.50;;;;;;;11.49;58.57;96260.13;4928177;29;20245;-70
2022/11/11 17:21:50;;;;;;;21.33;17.27;;;;;;;11.53;58.50;96266.00;4946405;28;20194;-70
2022/11/11 17:24:15;;;;;;;19.13;17.13;;;;;;;11.43;58.44;96253.59;4931967;29;20202;-70
2022/11/11 17:26:41;;;;;;;18.70;16.55;;;;;;;11.48;58.52;96266.38;4934567;29;20222;-70
2022/11/11 17:29:09;;;;;;;19.53;17.20;;;;;;;11.45;58.85;96264.00;4930850;29;20278;-68
2022/11/11 17:31:35;;;;;;;21.50;17.77;;;;;;;11.42;58.83;96259.00;4932398;29;20189;-68
2022/11/11 17:34:06;;;;;;;24.57;17.67;;;;;;;11.50;58.64;96272.38;4933358;29;20681;-68
2022/11/11 17:36:31;;;;;;;21.10;17.67;;;;;;;11.50;58.64;96264.47;4924796;29;20661;-67
2022/11/11 17:38:57;;;;;;;23.50;17.80;;;;;;;11.41;58.91;96258.16;4931124;29;20260;-67
2022/11/11 17:41:22;;;;;;;23.23;18.07;;;;;;;11.37;58.98;96255.91;4927438;29;20698;-69
2022/11/11 17:43:48;;;;;;;20.93;18.00;;;;;;;11.48;58.57;96259.31;4939033;29;20264;-68
2022/11/11 17:46:13;;;;;;;24.23;18.43;;;;;;;11.37;58.88;96245.38;4934956;29;20210;-70
2022/11/11 17:48:38;;;;;;;26.37;20.17;;;;;;;11.33;59.52;96249.19;4939308;29;20201;-69
2022/11/11 17:51:05;;;;;;;21.53;18.00;;;;;;;11.37;59.41;96250.63;4928879;29;20242;-70
2022/11/11 17:53:35;;;;;;;18.60;16.50;;;;;;;11.38;59.38;96245.22;4929534;29;20240;-70
2022/11/11 17:56:02;;;;;;;18.83;16.83;;;;;;;11.37;59.11;96246.19;4928601;29;20976;-69
2022/11/11 17:58:28;;;;;;;23.83;17.80;;;;;;;11.32;59.30;96243.09;4929138;29;20215;-69
2022/11/11 18:00:53;;;;;;;19.87;17.80;;;;;;;11.33;59.18;96247.41;4931972;29;20319;-69
2022/11/11 18:03:19;;;;;;;19.85;17.65;;;;;;;11.34;59.47;96253.53;4927961;29;20197;-69
2022/11/11 18:05:44;;;;;;;20.80;18.13;;;;;;;11.23;59.51;96246.50;4941540;28;20194;-68
2022/11/11 18:08:10;;;;;;;20.63;17.52;;;;;;;11.21;59.69;96243.16;4934110;29;20197;-68
2022/11/11 18:10:36;;;;;;;21.33;18.43;;;;;;;11.36;59.08;96241.91;4927573;29;20934;-69
2022/11/11 18:13:01;;;;;;;22.33;19.03;;;;;;;11.34;59.22;96241.19;4931422;29;20189;-69
2022/11/11 18:15:27;;;;;;;24.30;19.00;;;;;;;11.28;59.19;96246.97;4931601;29;20776;-69
2022/11/11 18:17:52;;;;;;;21.80;18.03;;;;;;;11.26;59.42;96239.19;4929433;29;20190;-69
2022/11/11 18:20:18;;;;;;;21.13;17.97;;;;;;;11.15;59.77;96244.50;4933071;29;20197;-69
2022/11/11 18:22:43;;;;;;;20.33;18.23;;;;;;;11.18;59.67;96240.78;4931108;29;20239;-70
2022/11/11 18:25:09;;;;;;;20.37;17.83;;;;;;;11.23;59.34;96246.50;4932411;29;20197;-70
2022/11/11 18:27:34;;;;;;;18.70;16.70;;;;;;;11.23;59.13;96244.72;4931335;29;20234;-68
2022/11/11 18:30:00;;;;;;;21.20;17.90;;;;;;;11.09;59.70;96247.63;4925039;29;20280;-70
2022/11/11 18:32:25;;;;;;;21.53;18.60;;;;;;;11.08;59.57;96253.84;4928962;29;20210;-70
2022/11/11 18:34:50;;;;;;;19.10;17.20;;;;;;;11.16;59.37;96258.50;4933908;29;20560;-70
2022/11/11 18:37:16;;;;;;;19.80;16.90;;;;;;;11.11;59.42;96258.84;4931741;29;20193;-69
2022/11/11 18:39:41;;;;;;;18.73;16.83;;;;;;;11.05;59.47;96251.47;4927069;29;20201;-68
2022/11/11 18:42:07;;;;;;;19.10;17.03;;;;;;;11.07;59.33;96259.25;4934865;29;20199;-66
2022/11/11 18:44:32;;;;;;;18.73;16.87;;;;;;;10.99;59.75;96259.88;4926865;29;20212;-66
2022/11/11 18:46:58;;;;;;;19.47;17.43;;;;;;;11.02;59.64;96256.97;4925084;29;20209;-67
2022/11/11 18:49:23;;;;;;;19.40;17.40;;;;;;;11.10;59.17;96270.34;4926326;29;20198;-68
2022/11/11 18:51:49;;;;;;;20.93;18.40;;;;;;;11.20;59.14;96270.44;4927606;29;20185;-67
2022/11/11 18:54:15;;;;;;;20.23;18.13;;;;;;;11.03;59.50;96270.00;4927175;29;20202;-68
2022/11/11 18:56:41;;;;;;;20.87;17.70;;;;;;;11.13;59.14;96272.75;4928065;29;20197;-68
2022/11/11 18:59:07;;;;;;;19.80;17.40;;;;;;;11.06;59.34;96270.72;4932082;29;20182;-68
2022/11/11 19:01:37;;;;;;;19.73;17.73;;;;;;;11.10;59.39;96266.91;4924750;29;20194;-67
2022/11/11 19:04:09;;;;;;;19.63;17.43;;;;;;;11.09;59.27;96265.22;4930690;29;20289;-67
2022/11/11 19:06:38;;;;;;;19.63;17.40;;;;;;;11.11;59.16;96268.56;4925278;29;20209;-69
2022/11/11 19:09:09;;;;;;;20.80;18.60;;;;;;;11.03;59.27;96264.75;4930658;29;20197;-71
2022/11/11 19:11:37;;;;;;;20.23;18.13;;;;;;;10.99;59.54;96279.13;4928034;29;20177;-68
2022/11/11 19:14:05;;;;;;;20.87;18.57;;;;;;;10.92;59.69;96272.66;4925685;29;20190;-66
2022/11/11 19:16:31;;;;;;;19.57;17.40;;;;;;;10.89;59.66;96272.91;4932610;29;20196;-66
2022/11/11 19:18:57;;;;;;;20.77;18.57;;;;;;;10.81;60.54;96280.59;4923468;29;20588;-66
2022/11/11 19:21:25;;;;;;;23.00;18.93;;;;;;;10.77;61.36;96263.38;4921840;29;20285;-66
2022/11/11 19:23:52;;;;;;;22.43;20.13;;;;;;;10.88;61.63;96266.00;4923763;29;20193;-65
2022/11/11 19:26:19;;;;;;;21.47;19.20;;;;;;;10.94;61.66;96270.75;4927826;29;20213;-66
2022/11/11 19:28:45;;;;;;;20.23;18.10;;;;;;;10.89;62.61;96274.72;4925031;29;20700;-65
2022/11/11 19:31:13;;;;;;;21.53;19.33;;;;;;;10.91;62.03;96278.06;4928055;29;20189;-67
2022/11/11 19:33:40;;;;;;;21.30;19.07;;;;;;;10.82;62.76;96283.13;4927195;29;20614;-66
2022/11/11 19:36:09;;;;;;;23.73;20.53;;;;;;;10.78;63.26;96275.56;4931073;28;20233;-67
2022/11/11 19:38:35;;;;;;;22.23;19.93;;;;;;;10.78;63.46;96281.66;4924437;29;20197;-67
2022/11/11 19:41:18;;;;;;;22.77;19.67;;;;;;;10.84;63.27;96287.41;4923445;29;20198;-66
2022/11/11 19:43:44;;;;;;;21.87;19.23;;;;;;;10.87;63.08;96280.09;4925287;29;20288;-67
2022/11/11 19:46:13;;;;;;;22.90;20.50;;;;;;;10.83;63.29;96286.56;4924519;29;20321;-68
2022/11/11 19:48:39;;;;;;;23.10;20.00;;;;;;;10.92;62.69;96279.72;4927624;29;20585;-67
2022/11/11 19:51:06;;;;;;;22.43;20.03;;;;;;;10.86;62.72;96283.69;4929173;29;20264;-67
2022/11/11 19:53:33;;;;;;;21.97;19.67;;;;;;;10.81;62.98;96281.41;4929671;29;20269;-66
2022/11/11 19:56:01;;;;;;;23.17;20.30;;;;;;;10.81;63.03;96285.84;4925782;29;20229;-66
2022/11/11 19:58:26;;;;;;;23.40;19.40;;;;;;;10.84;62.66;96282.16;4923363;29;20204;-65
2022/11/11 20:00:53;;;;;;;23.40;20.90;;;;;;;10.77;63.01;96284.41;4924605;29;20273;-65
2022/11/11 20:03:18;;;;;;;23.50;19.70;;;;;;;10.63;64.62;96297.81;4928884;29;20245;-69
2022/11/11 20:05:44;;;;;;;23.20;20.73;;;;;;;10.66;65.75;96302.84;4928484;29;20635;-68
2022/11/11 20:08:09;;;;;;;24.27;20.40;;;;;;;10.75;66.38;96304.75;4927757;29;20205;-68
2022/11/11 20:10:41;;;;;;;26.67;21.37;;;;;;;10.65;66.50;96301.19;4927755;29;20190;-67
2022/11/11 20:13:07;;;;;;;26.60;22.33;;;;;;;10.60;67.64;96298.91;4924969;29;20220;-68
2022/11/11 20:15:33;;;;;;;25.30;22.47;;;;;;;10.59;67.22;96305.97;4931261;29;20193;-68
2022/11/11 20:18:25;;;;;;;24.63;22.13;;;;;;;10.62;67.10;96314.56;4932357;29;20288;-66
2022/11/11 20:20:55;;;;;;;28.80;24.17;;;;;;;10.69;67.21;96316.63;4925637;29;20352;-66
2022/11/11 20:23:20;;;;;;;26.47;23.20;;;;;;;10.65;67.44;96304.66;4924283;29;20301;-67
2022/11/11 20:25:46;;;;;;;25.20;22.50;;;;;;;10.70;67.53;96317.44;4925248;29;20913;-66
2022/11/11 20:28:11;;;;;;;27.33;22.90;;;;;;;10.60;68.18;96306.78;4926055;29;20645;-65
2022/11/11 20:30:37;;;;;;;25.67;22.83;;;;;;;10.60;67.93;96315.50;4924212;29;20244;-66
2022/11/11 20:33:02;;;;;;;25.90;23.03;;;;;;;10.58;68.04;96324.47;4932285;29;20190;-65
2022/11/11 20:35:28;;;;;;;28.03;24.03;;;;;;;10.54;68.06;96315.19;4908564;29;20190;-66
2022/11/11 20:37:54;;;;;;;28.57;24.37;;;;;;;10.57;68.38;96321.03;4933489;29;20320;-67
2022/11/11 20:40:19;;;;;;;27.23;24.27;;;;;;;10.46;68.63;96320.19;4930529;29;20284;-67
2022/11/11 20:42:45;;;;;;;27.37;24.30;;;;;;;10.41;69.15;96323.16;4932856;29;20336;-67
2022/11/11 20:45:10;;;;;;;28.13;24.60;;;;;;;10.33;69.05;96329.03;4930992;29;20198;-66